createdAt,value
2022-08-28T00:00:47.716Z,99109.31
2022-08-28T00:02:50.113Z,99100.34
2022-08-28T00:04:52.950Z,99102.25
2022-08-28T00:06:55.375Z,99102.75
2022-08-28T00:08:57.577Z,99107.41
2022-08-28T00:10:59.836Z,99108.59
2022-08-28T00:13:02.708Z,99105.50
2022-08-28T00:15:12.874Z,99109.72
2022-08-28T00:17:15.046Z,99099.03
2022-08-28T00:19:24.115Z,99095.22
2022-08-28T00:21:26.246Z,99095.41
2022-08-28T00:23:42.397Z,99093.28
2022-08-28T00:25:45.147Z,99096.38
2022-08-28T00:27:53.493Z,99090.38
2022-08-28T00:29:57.446Z,99091.41
2022-08-28T00:32:00.154Z,99098.78
2022-08-28T00:34:03.274Z,99095.03
2022-08-28T00:36:05.607Z,99094.84
2022-08-28T00:38:09.493Z,99098.63
2022-08-28T00:40:15.913Z,99101.31
2022-08-28T00:42:18.481Z,99101.16
2022-08-28T00:44:23.440Z,99102.88
2022-08-28T00:46:28.532Z,99090.00
2022-08-28T00:48:30.889Z,99100.94
2022-08-28T00:51:00.300Z,99093.03
2022-08-28T00:53:06.056Z,99092.50
2022-08-28T00:55:13.794Z,99092.66
2022-08-28T00:57:20.312Z,99090.59
2022-08-28T00:59:25.426Z,99098.72
2022-08-28T01:01:27.583Z,99101.59
2022-08-28T01:03:29.731Z,99099.91
2022-08-28T01:05:33.384Z,99100.91
2022-08-28T01:07:37.398Z,99101.25
2022-08-28T01:09:44.114Z,99102.44
2022-08-28T01:11:48.525Z,99091.28
2022-08-28T01:13:54.549Z,99098.13
2022-08-28T01:15:58.444Z,99094.84
2022-08-28T01:18:09.568Z,99102.06
2022-08-28T01:20:22.207Z,99096.03
2022-08-28T01:22:31.080Z,99092.72
2022-08-28T01:24:35.837Z,99094.63
2022-08-28T01:26:38.745Z,99093.13
2022-08-28T01:28:41.554Z,99094.50
2022-08-28T01:30:47.755Z,99101.56
2022-08-28T01:32:53.905Z,99097.63
2022-08-28T01:34:59.572Z,99101.00
2022-08-28T01:37:02.908Z,99102.19
2022-08-28T01:39:12.223Z,99102.53
2022-08-28T01:41:15.064Z,99099.13
2022-08-28T01:43:21.020Z,99099.63
2022-08-28T01:45:24.324Z,99097.03
2022-08-28T01:47:26.435Z,99096.88
2022-08-28T01:49:29.624Z,99102.38
2022-08-28T01:51:35.077Z,99102.38
2022-08-28T01:53:41.791Z,99087.94
2022-08-28T01:55:47.284Z,99093.91
2022-08-28T01:57:53.391Z,99097.50
2022-08-28T01:59:55.694Z,99096.13
2022-08-28T02:01:57.709Z,99096.97
2022-08-28T02:04:00.925Z,99100.66
2022-08-28T02:06:03.362Z,99097.53
2022-08-28T02:08:06.649Z,99104.72
2022-08-28T02:10:10.457Z,99100.09
2022-08-28T02:12:12.597Z,99099.91
2022-08-28T02:14:15.198Z,99099.91
2022-08-28T02:16:17.342Z,99095.13
2022-08-28T02:18:19.892Z,99105.13
2022-08-28T02:20:23.231Z,99106.50
2022-08-28T02:22:25.248Z,99099.28
2022-08-28T02:24:27.345Z,99102.38
2022-08-28T02:26:30.470Z,99098.44
2022-08-28T02:28:32.568Z,99094.81
2022-08-28T02:30:35.514Z,99093.41
2022-08-28T02:32:38.369Z,99096.78
2022-08-28T02:34:42.333Z,99093.41
2022-08-28T02:36:47.336Z,99094.59
2022-08-28T02:38:55.341Z,99092.19
2022-08-28T02:40:59.675Z,99090.59
2022-08-28T02:43:06.344Z,99090.59
2022-08-28T02:45:10.944Z,99089.91
2022-08-28T02:47:18.776Z,99091.09
2022-08-28T02:49:21.016Z,99090.38
2022-08-28T02:51:23.050Z,99103.25
2022-08-28T02:53:25.509Z,99102.53
2022-08-28T02:55:31.306Z,99095.63
2022-08-28T02:57:39.228Z,99107.31
2022-08-28T02:59:41.626Z,99101.63
2022-08-28T03:01:44.599Z,99103.84
2022-08-28T03:03:46.882Z,99109.31
2022-08-28T03:05:49.783Z,99105.00
2022-08-28T03:07:53.739Z,99109.97
2022-08-28T03:09:56.328Z,99113.41
2022-08-28T03:11:58.463Z,99115.59
2022-08-28T03:14:03.374Z,99127.44
2022-08-28T03:16:05.868Z,99124.44
2022-08-28T03:18:11.084Z,99122.97
2022-08-28T03:20:15.211Z,99121.00
2022-08-28T03:22:18.523Z,99128.91
2022-08-28T03:24:23.813Z,99122.25
2022-08-28T03:26:26.064Z,99127.44
2022-08-28T03:28:31.578Z,99132.75
2022-08-28T03:30:33.746Z,99127.59
2022-08-28T03:32:35.956Z,99127.44
2022-08-28T03:34:38.175Z,99126.09
2022-08-28T03:36:40.348Z,99124.22
2022-08-28T03:38:42.613Z,99127.44
2022-08-28T03:40:46.724Z,99125.56
2022-08-28T03:42:53.028Z,99123.66
2022-08-28T03:44:56.025Z,99121.97
2022-08-28T03:46:58.059Z,99127.19
2022-08-28T03:49:02.820Z,99129.63
2022-08-28T03:51:09.999Z,99130.78
2022-08-28T03:53:12.794Z,99133.22
2022-08-28T03:55:15.497Z,99139.59
2022-08-28T03:57:21.825Z,99136.50
2022-08-28T03:59:26.678Z,99138.44
2022-08-28T04:01:34.604Z,99139.28
2022-08-28T04:03:37.037Z,99149.00
2022-08-28T04:05:40.637Z,99149.28
2022-08-28T04:07:42.811Z,99154.34
2022-08-28T04:09:45.865Z,99147.84
2022-08-28T04:11:48.024Z,99151.31
2022-08-28T04:13:58.975Z,99149.16
2022-08-28T04:16:06.517Z,99153.22
2022-08-28T04:18:11.222Z,99152.50
2022-08-28T04:20:13.742Z,99159.56
2022-08-28T04:22:17.136Z,99158.53
2022-08-28T04:24:20.583Z,99154.09
2022-08-28T04:26:25.244Z,99156.69
2022-08-28T04:28:27.963Z,99156.28
2022-08-28T04:30:30.532Z,99153.63
2022-08-28T04:32:35.659Z,99155.53
2022-08-28T04:34:38.775Z,99156.06
2022-08-28T04:36:44.060Z,99153.63
2022-08-28T04:38:49.376Z,99161.69
2022-08-28T04:40:51.642Z,99161.16
2022-08-28T04:42:54.093Z,99158.09
2022-08-28T04:44:59.770Z,99161.41
2022-08-28T04:47:02.356Z,99164.75
2022-08-28T04:49:06.188Z,99161.25
2022-08-28T04:51:11.539Z,99166.09
2022-08-28T04:53:15.305Z,99164.66
2022-08-28T04:55:18.248Z,99157.91
2022-08-28T04:57:39.810Z,99170.00
2022-08-28T04:59:45.307Z,99173.88
2022-08-28T05:01:47.878Z,99165.41
2022-08-28T05:03:57.868Z,99173.50
2022-08-28T05:06:00.108Z,99183.09
2022-08-28T05:08:02.713Z,99178.88
2022-08-28T05:10:06.094Z,99190.09
2022-08-28T05:12:08.833Z,99177.31
2022-08-28T05:14:15.868Z,99174.06
2022-08-28T05:16:20.132Z,99177.22
2022-08-28T05:18:24.331Z,99176.34
2022-08-28T05:20:26.810Z,99180.28
2022-08-28T05:22:31.772Z,99175.97
2022-08-28T05:24:35.426Z,99171.50
2022-08-28T05:26:40.316Z,99171.06
2022-08-28T05:28:42.859Z,99178.19
2022-08-28T05:30:46.333Z,99181.25
2022-08-28T05:32:48.506Z,99178.00
2022-08-28T05:34:50.637Z,99184.16
2022-08-28T05:36:52.927Z,99175.97
2022-08-28T05:38:58.156Z,99172.41
2022-08-28T05:41:01.272Z,99173.09
2022-08-28T05:43:03.670Z,99179.13
2022-08-28T05:45:07.232Z,99164.41
2022-08-28T05:47:09.756Z,99169.63
2022-08-28T05:49:13.689Z,99170.91
2022-08-28T05:51:23.944Z,99170.72
2022-08-28T05:53:27.003Z,99176.13
2022-08-28T05:55:29.114Z,99174.06
2022-08-28T05:57:31.646Z,99179.63
2022-08-28T05:59:34.169Z,99179.13
2022-08-28T06:01:40.660Z,99170.03
2022-08-28T06:03:45.508Z,99180.06
2022-08-28T06:05:57.815Z,99179.22
2022-08-28T06:08:00.323Z,99172.81
2022-08-28T06:10:02.747Z,99176.13
2022-08-28T06:12:05.864Z,99171.88
2022-08-28T06:14:11.010Z,99174.56
2022-08-28T06:16:14.101Z,99176.63
2022-08-28T06:18:17.875Z,99182.00
2022-08-28T06:20:21.089Z,99175.31
2022-08-28T06:22:23.575Z,99175.31
2022-08-28T06:24:30.498Z,99180.69
2022-08-28T06:26:32.663Z,99174.16
2022-08-28T06:28:34.927Z,99175.69
2022-08-28T06:30:52.847Z,99174.47
2022-08-28T06:33:06.751Z,99178.09
2022-08-28T06:35:09.046Z,99184.28
2022-08-28T06:37:12.651Z,99191.34
2022-08-28T06:39:15.561Z,99186.88
2022-08-28T06:41:20.682Z,99190.94
2022-08-28T06:43:26.346Z,99190.78
2022-08-28T06:45:28.630Z,99188.47
2022-08-28T06:47:30.780Z,99191.38
2022-08-28T06:49:33.576Z,99192.34
2022-08-28T06:51:36.710Z,99195.28
2022-08-28T06:53:41.465Z,99195.63
2022-08-28T06:55:43.864Z,99181.28
2022-08-28T06:57:46.575Z,99193.28
2022-08-28T06:59:49.391Z,99200.84
2022-08-28T07:01:54.924Z,99199.78
2022-08-28T07:04:02.602Z,99197.53
2022-08-28T07:06:06.639Z,99197.63
2022-08-28T07:08:11.913Z,99189.28
2022-08-28T07:10:14.262Z,99189.69
2022-08-28T07:12:18.048Z,99190.91
2022-08-28T07:14:20.148Z,99195.34
2022-08-28T07:16:31.829Z,99194.41
2022-08-28T07:18:33.983Z,99195.84
2022-08-28T07:20:36.494Z,99196.94
2022-08-28T07:22:41.048Z,99197.03
2022-08-28T07:24:43.336Z,99198.56
2022-08-28T07:26:47.397Z,99199.31
2022-08-28T07:28:51.990Z,99199.63
2022-08-28T07:30:59.660Z,99200.94
2022-08-28T07:33:02.558Z,99203.34
2022-08-28T07:35:05.129Z,99200.50
2022-08-28T07:37:12.150Z,99196.94
2022-08-28T07:39:17.169Z,99208.88
2022-08-28T07:41:22.453Z,99207.75
2022-08-28T07:43:42.937Z,99204.47
2022-08-28T07:45:45.406Z,99215.34
2022-08-28T07:47:47.695Z,99207.22
2022-08-28T07:49:50.248Z,99217.31
2022-08-28T07:51:54.387Z,99213.22
2022-08-28T07:54:00.396Z,99211.28
2022-08-28T07:56:03.097Z,99205.44
2022-08-28T07:58:06.214Z,99206.19
2022-08-28T08:00:09.018Z,99212.88
2022-08-28T08:02:16.706Z,99213.00
2022-08-28T08:04:21.249Z,99212.72
2022-08-28T08:06:28.913Z,99221.97
2022-08-28T08:08:36.806Z,99211.84
2022-08-28T08:10:38.898Z,99212.81
2022-08-28T08:12:42.990Z,99217.44
2022-08-28T08:14:45.969Z,99217.78
2022-08-28T08:16:48.903Z,99213.84
2022-08-28T08:18:52.244Z,99217.75
2022-08-28T08:20:54.473Z,99211.59
2022-08-28T08:22:56.997Z,99212.91
2022-08-28T08:24:59.221Z,99208.47
2022-08-28T08:27:02.780Z,99207.91
2022-08-28T08:29:05.134Z,99207.75
2022-08-28T08:31:11.696Z,99208.25
2022-08-28T08:33:13.974Z,99211.06
2022-08-28T08:35:17.544Z,99208.97
2022-08-28T08:37:19.847Z,99215.47
2022-08-28T08:39:22.196Z,99216.56
2022-08-28T08:41:55.810Z,99213.81
2022-08-28T08:44:07.960Z,99218.31
2022-08-28T08:46:10.934Z,99222.03
2022-08-28T08:48:32.799Z,99223.53
2022-08-28T08:50:36.146Z,99218.41
2022-08-28T08:52:44.310Z,99215.19
2022-08-28T08:55:04.977Z,99216.50
2022-08-28T08:57:12.360Z,99217.75
2022-08-28T08:59:18.880Z,99222.69
2022-08-28T09:01:30.021Z,99221.00
2022-08-28T09:03:38.925Z,99213.91
2022-08-28T09:05:52.604Z,99216.28
2022-08-28T09:07:59.479Z,99213.44
2022-08-28T09:10:02.358Z,99218.97
2022-08-28T09:12:07.400Z,99214.28
2022-08-28T09:14:17.157Z,99214.28
2022-08-28T09:16:32.564Z,99212.94
2022-08-28T09:18:35.939Z,99215.72
2022-08-28T09:20:42.976Z,99217.41
2022-08-28T09:22:50.694Z,99217.34
2022-08-28T09:24:53.369Z,99210.66
2022-08-28T09:27:12.316Z,99223.13
2022-08-28T09:29:23.719Z,99218.13
2022-08-28T09:31:36.711Z,99211.53
2022-08-28T09:33:51.475Z,99214.50
2022-08-28T09:35:53.890Z,99220.34
2022-08-28T09:38:15.718Z,99219.03
2022-08-28T09:40:52.233Z,99214.28
2022-08-28T09:43:20.267Z,99214.41
2022-08-28T09:45:27.532Z,99215.19
2022-08-28T09:47:57.574Z,99219.66
2022-08-28T09:50:30.011Z,99214.22
2022-08-28T09:52:32.355Z,99215.03
2022-08-28T09:54:44.862Z,99209.44
2022-08-28T09:56:47.755Z,99214.75
2022-08-28T09:58:54.726Z,99216.66
2022-08-28T10:01:04.463Z,99201.53
2022-08-28T10:03:26.920Z,99199.97
2022-08-28T10:05:39.198Z,99209.78
2022-08-28T10:08:26.649Z,99206.09
2022-08-28T10:10:44.650Z,99206.91
2022-08-28T10:12:52.650Z,99205.13
2022-08-28T10:15:27.605Z,99203.34
2022-08-28T10:17:49.003Z,99202.81
2022-08-28T10:20:13.831Z,99207.09
2022-08-28T10:27:02.137Z,99192.63
2022-08-28T10:29:24.136Z,99198.53
2022-08-28T10:31:46.481Z,99194.41
2022-08-28T10:34:20.924Z,99193.72
2022-08-28T10:36:34.502Z,99191.47
2022-08-28T10:38:49.566Z,99196.41
2022-08-28T10:41:05.217Z,99193.06
2022-08-28T10:43:14.087Z,99192.53
2022-08-28T10:45:21.093Z,99189.72
2022-08-28T10:47:26.470Z,99190.56
2022-08-28T10:49:42.201Z,99189.72
2022-08-28T10:51:51.293Z,99188.69
2022-08-28T10:53:58.805Z,99183.88
2022-08-28T10:56:19.799Z,99187.66
2022-08-28T10:58:26.441Z,99188.47
2022-08-28T11:00:29.949Z,99180.44
2022-08-28T11:02:33.103Z,99179.81
2022-08-28T11:04:35.901Z,99187.28
2022-08-28T11:06:46.654Z,99176.47
2022-08-28T11:08:56.129Z,99178.16
2022-08-28T11:11:04.165Z,99181.56
2022-08-28T11:13:09.995Z,99178.63
2022-08-28T11:15:34.226Z,99179.69
2022-08-28T11:17:42.245Z,99187.28
2022-08-28T11:19:59.521Z,99188.16
2022-08-28T11:22:15.321Z,99179.94
2022-08-28T11:24:23.758Z,99174.84
2022-08-28T11:26:39.206Z,99177.94
2022-08-28T11:28:46.899Z,99170.75
2022-08-28T11:31:19.235Z,99172.59
2022-08-28T11:33:37.429Z,99166.03
2022-08-28T11:35:48.610Z,99170.66
2022-08-28T11:37:54.977Z,99170.56
2022-08-28T11:40:17.568Z,99167.03
2022-08-28T11:42:35.292Z,99168.03
2022-08-28T11:44:45.279Z,99166.00
2022-08-28T11:46:52.311Z,99158.09
2022-08-28T11:48:57.317Z,99158.59
2022-08-28T11:51:09.434Z,99162.47
2022-08-28T11:53:24.278Z,99155.91
2022-08-28T11:56:07.080Z,99158.16
2022-08-28T11:58:17.198Z,99160.25
2022-08-28T12:00:53.054Z,99155.53
2022-08-28T12:03:07.251Z,99149.31
2022-08-28T12:05:09.488Z,99144.47
2022-08-28T12:07:11.725Z,99149.47
2022-08-28T12:09:26.302Z,99145.56
2022-08-28T12:11:41.923Z,99139.72
2022-08-28T12:13:52.133Z,99149.09
2022-08-28T12:16:06.988Z,99147.63
2022-08-28T12:18:14.873Z,99139.34
2022-08-28T12:20:26.155Z,99148.38
2022-08-28T12:22:53.389Z,99149.09
2022-08-28T12:25:03.591Z,99145.69
2022-08-28T12:27:08.587Z,99149.88
2022-08-28T12:29:35.137Z,99155.09
2022-08-28T12:32:12.630Z,99148.88
2022-08-28T12:34:28.997Z,99151.81
2022-08-28T12:36:31.405Z,99148.03
2022-08-28T12:38:37.937Z,99144.00
2022-08-28T12:40:53.609Z,99143.28
2022-08-28T12:43:01.071Z,99141.47
2022-08-28T12:45:10.297Z,99143.66
2022-08-28T12:47:19.205Z,99137.22
2022-08-28T12:49:37.845Z,99129.53
2022-08-28T12:51:42.321Z,99126.72
2022-08-28T12:53:47.806Z,99124.84
2022-08-28T12:55:50.309Z,99123.09
2022-08-28T12:57:53.712Z,99125.72
2022-08-28T13:00:09.495Z,99131.09
2022-08-28T13:02:23.789Z,99123.75
2022-08-28T13:04:34.425Z,99121.94
2022-08-28T13:06:39.562Z,99111.81
2022-08-28T13:08:42.263Z,99112.81
2022-08-28T13:10:52.244Z,99111.34
2022-08-28T13:13:11.363Z,99116.56
2022-08-28T13:15:14.377Z,99116.22
2022-08-28T13:17:45.063Z,99114.03
2022-08-28T13:20:03.640Z,99108.53
2022-08-28T13:22:09.552Z,99108.31
2022-08-28T13:24:21.299Z,99108.81
2022-08-28T13:26:37.906Z,99110.72
2022-08-28T13:28:43.075Z,99105.25
2022-08-28T13:30:58.630Z,99115.25
2022-08-28T13:33:05.139Z,99106.34
2022-08-28T13:35:07.392Z,99114.69
2022-08-28T13:37:30.992Z,99106.69
2022-08-28T13:39:37.901Z,99114.28
2022-08-28T13:41:40.938Z,99110.84
2022-08-28T13:43:46.902Z,99099.41
2022-08-28T13:45:50.527Z,99104.28
2022-08-28T13:47:53.487Z,99100.88
2022-08-28T13:49:56.375Z,99099.88
2022-08-28T13:52:01.176Z,99100.44
2022-08-28T13:54:04.102Z,99098.25
2022-08-28T13:56:08.413Z,99094.00
2022-08-28T13:58:11.813Z,99097.03
2022-08-28T14:00:15.397Z,99091.91
2022-08-28T14:02:42.066Z,99086.59
2022-08-28T14:04:45.313Z,99089.22
2022-08-28T14:06:47.880Z,99093.97
2022-08-28T14:08:51.094Z,99089.56
2022-08-28T14:10:53.547Z,99083.00
2022-08-28T14:12:56.372Z,99079.22
2022-08-28T14:14:58.558Z,99079.34
2022-08-28T14:17:02.020Z,99077.78
2022-08-28T14:19:06.377Z,99078.75
2022-08-28T14:21:08.644Z,99079.00
2022-08-28T14:23:11.366Z,99079.84
2022-08-28T14:25:14.249Z,99067.31
2022-08-28T14:27:19.906Z,99068.53
2022-08-28T14:29:23.145Z,99081.03
2022-08-28T14:31:26.830Z,99076.06
2022-08-28T14:33:29.641Z,99078.09
2022-08-28T14:35:41.096Z,99081.84
2022-08-28T14:45:45.963Z,99068.19
2022-08-28T14:47:48.162Z,99072.31
2022-08-28T14:49:50.863Z,99060.41
2022-08-28T14:51:57.338Z,99067.78
2022-08-28T14:54:01.398Z,99060.66
2022-08-28T14:56:07.883Z,99056.75
2022-08-28T14:58:11.145Z,99052.00
2022-08-28T15:00:16.118Z,99047.66
2022-08-28T15:02:19.073Z,99062.13
2022-08-28T15:04:23.881Z,99049.53
2022-08-28T15:06:28.149Z,99051.88
2022-08-28T15:08:33.395Z,99054.06
2022-08-28T15:10:39.141Z,99055.97
2022-08-28T15:12:42.503Z,99050.84
2022-08-28T15:14:55.236Z,99054.97
2022-08-28T15:17:00.371Z,99055.16
2022-08-28T15:19:03.874Z,99060.38
2022-08-28T15:21:21.969Z,99052.69
2022-08-28T15:23:24.947Z,99053.47
2022-08-28T15:25:27.488Z,99053.47
2022-08-28T15:27:30.229Z,99056.84
2022-08-28T15:29:32.693Z,99052.13
2022-08-28T15:31:38.795Z,99060.03
2022-08-28T15:33:45.385Z,99057.72
2022-08-28T15:35:48.428Z,99053.19
2022-08-28T15:37:51.885Z,99058.63
2022-08-28T15:40:13.089Z,99050.25
2022-08-28T15:42:16.167Z,99053.75
2022-08-28T15:44:18.598Z,99055.06
2022-08-28T15:46:22.283Z,99055.88
2022-08-28T15:48:24.542Z,99052.59
2022-08-28T15:50:26.858Z,99060.13
2022-08-28T15:52:29.530Z,99061.66
2022-08-28T15:54:32.357Z,99061.94
2022-08-28T15:56:34.822Z,99053.06
2022-08-28T15:58:37.736Z,99055.66
2022-08-28T16:00:40.325Z,99061.81
2022-08-28T16:02:43.150Z,99056.72
2022-08-28T16:04:45.865Z,99054.38
2022-08-28T16:07:50.628Z,99055.53
2022-08-28T16:09:53.027Z,99055.38
2022-08-28T16:11:55.572Z,99052.41
2022-08-28T16:13:58.359Z,99052.72
2022-08-28T16:16:00.950Z,99053.41
2022-08-28T16:18:03.700Z,99048.13
2022-08-28T16:20:07.053Z,99053.25
2022-08-28T16:22:17.900Z,99056.97
2022-08-28T16:24:20.383Z,99056.81
2022-08-28T16:26:23.233Z,99066.88
2022-08-28T16:28:27.109Z,99054.66
2022-08-28T16:30:29.444Z,99063.03
2022-08-28T16:32:32.455Z,99058.97
2022-08-28T16:34:35.309Z,99053.19
2022-08-28T16:36:39.220Z,99057.44
2022-08-28T16:38:46.145Z,99055.09
2022-08-28T16:40:48.589Z,99062.00
2022-08-28T16:42:52.238Z,99063.97
2022-08-28T16:44:59.856Z,99066.59
2022-08-28T16:47:02.271Z,99065.50
2022-08-28T16:49:04.680Z,99066.59
2022-08-28T16:51:07.398Z,99066.44
2022-08-28T16:53:10.391Z,99063.69
2022-08-28T16:55:16.271Z,99071.25
2022-08-28T16:57:20.003Z,99069.38
2022-08-28T16:59:24.194Z,99073.69
2022-08-28T17:01:26.885Z,99079.09
2022-08-28T17:03:29.244Z,99088.38
2022-08-28T17:05:32.471Z,99084.28
2022-08-28T17:07:35.469Z,99091.00
2022-08-28T17:09:40.764Z,99088.28
2022-08-28T17:11:43.277Z,99090.88
2022-08-28T17:13:49.260Z,99091.53
2022-08-28T17:15:52.789Z,99101.88
2022-08-28T17:17:55.896Z,99098.50
2022-08-28T17:19:58.036Z,99116.72
2022-08-28T17:22:18.630Z,99109.22
2022-08-28T17:24:22.689Z,99120.63
2022-08-28T17:26:28.152Z,99106.06
2022-08-28T17:28:31.368Z,99107.81
2022-08-28T17:30:34.592Z,99119.41
2022-08-28T17:32:37.235Z,99117.28
2022-08-28T17:34:42.708Z,99120.31
2022-08-28T17:36:45.022Z,99115.38
2022-08-28T17:38:50.283Z,99117.13
2022-08-28T17:40:53.486Z,99121.63
2022-08-28T17:42:58.095Z,99125.91
2022-08-28T17:45:00.257Z,99128.47
2022-08-28T17:47:02.903Z,99135.75
2022-08-28T17:49:07.277Z,99132.56
2022-08-28T17:51:09.480Z,99143.03
2022-08-28T17:53:12.921Z,99144.72
2022-08-28T17:55:15.451Z,99151.75
2022-08-28T17:57:17.898Z,99159.03
2022-08-28T17:59:21.593Z,99162.91
2022-08-28T18:01:26.492Z,99177.66
2022-08-28T18:03:28.734Z,99168.88
2022-08-28T18:05:31.430Z,99176.16
2022-08-28T18:07:33.722Z,99172.06
2022-08-28T18:09:36.111Z,99176.13
2022-08-28T18:11:38.655Z,99165.00
2022-08-28T18:13:42.712Z,99172.03
2022-08-28T18:15:45.492Z,99167.31
2022-08-28T18:17:58.018Z,99172.81
2022-08-28T18:20:01.222Z,99168.53
2022-08-28T18:22:03.435Z,99173.00
2022-08-28T18:24:07.765Z,99168.72
2022-08-28T18:26:10.223Z,99162.28
2022-08-28T18:28:19.614Z,99171.41
2022-08-28T18:30:24.764Z,99161.50
2022-08-28T18:32:27.136Z,99167.88
2022-08-28T18:34:32.227Z,99171.91
2022-08-28T18:36:34.529Z,99171.91
2022-08-28T18:38:37.177Z,99184.28
2022-08-28T18:40:40.149Z,99178.75
2022-08-28T18:42:42.644Z,99186.41
2022-08-28T18:44:45.467Z,99184.69
2022-08-28T18:46:48.516Z,99184.06
2022-08-28T18:48:50.869Z,99183.38
2022-08-28T18:50:53.587Z,99185.50
2022-08-28T18:52:57.987Z,99186.78
2022-08-28T18:55:00.663Z,99189.31
2022-08-28T18:57:05.675Z,99195.28
2022-08-28T18:59:08.239Z,99197.38
2022-08-28T19:01:10.226Z,99195.88
2022-08-28T19:03:12.389Z,99206.53
2022-08-28T19:05:15.767Z,99203.28
2022-08-28T19:07:17.821Z,99203.03
2022-08-28T19:09:20.730Z,99204.31
2022-08-28T19:11:22.696Z,99209.22
2022-08-28T19:13:24.515Z,99207.00
2022-08-28T19:15:26.311Z,99211.22
2022-08-28T19:17:28.647Z,99211.63
2022-08-28T19:19:32.319Z,99208.41
2022-08-28T19:21:34.162Z,99213.22
2022-08-28T19:23:36.012Z,99218.53
2022-08-28T19:25:37.796Z,99218.81
2022-08-28T19:27:41.369Z,99227.84
2022-08-28T19:29:43.275Z,99233.66
2022-08-28T19:31:45.124Z,99233.00
2022-08-28T19:33:47.532Z,99228.66
2022-08-28T19:35:50.139Z,99236.75
2022-08-28T19:37:53.776Z,99236.75
2022-08-28T19:39:56.630Z,99235.31
2022-08-28T19:41:58.800Z,99232.72
2022-08-28T19:44:00.677Z,99240.88
2022-08-28T19:46:07.934Z,99247.66
2022-08-28T19:48:13.250Z,99249.94
2022-08-28T19:50:15.879Z,99256.38
2022-08-28T19:52:17.919Z,99252.25
2022-08-28T19:54:19.835Z,99255.22
2022-08-28T19:56:26.830Z,99253.50
2022-08-28T19:58:28.722Z,99258.59
2022-08-28T20:00:33.108Z,99266.03
2022-08-28T20:02:35.180Z,99290.13
2022-08-28T20:04:38.351Z,99309.34
2022-08-28T20:06:40.616Z,99308.78
2022-08-28T20:08:43.069Z,99285.19
2022-08-28T20:10:46.174Z,99299.22
2022-08-28T20:12:48.987Z,99299.50
2022-08-28T20:14:51.328Z,99308.50
2022-08-28T20:16:54.616Z,99306.56
2022-08-28T20:19:00.366Z,99312.50
2022-08-28T20:21:02.821Z,99299.78
2022-08-28T20:23:05.300Z,99303.63
2022-08-28T20:25:09.794Z,99306.13
2022-08-28T20:27:12.128Z,99306.28
2022-08-28T20:29:14.662Z,99306.97
2022-08-28T20:31:17.858Z,99309.63
2022-08-28T20:33:19.832Z,99311.22
2022-08-28T20:35:24.627Z,99305.00
2022-08-28T20:37:29.669Z,99302.06
2022-08-28T20:39:37.150Z,99316.31
2022-08-28T20:41:40.698Z,99304.84
2022-08-28T20:43:43.916Z,99305.78
2022-08-28T20:45:46.071Z,99305.13
2022-08-28T20:47:48.515Z,99296.50
2022-08-28T20:49:50.595Z,99305.88
2022-08-28T20:51:53.130Z,99302.16
2022-08-28T20:53:55.146Z,99305.59
2022-08-28T20:55:59.955Z,99308.94
2022-08-28T20:58:02.027Z,99309.50
2022-08-28T21:00:08.440Z,99308.38
2022-08-28T21:02:23.130Z,99307.31
2022-08-28T21:04:25.383Z,99307.81
2022-08-28T21:06:29.091Z,99310.84
2022-08-28T21:08:31.249Z,99310.00
2022-08-28T21:10:34.521Z,99313.06
2022-08-28T21:12:39.026Z,99316.38
2022-08-28T21:14:41.092Z,99317.41
2022-08-28T21:16:44.089Z,99323.84
2022-08-28T21:19:14.111Z,99331.56
2022-08-28T21:21:10.167Z,99326.69
2022-08-28T21:23:12.096Z,99333.59
2022-08-28T21:25:16.039Z,99339.13
2022-08-28T21:27:18.518Z,99331.75
2022-08-28T21:29:22.647Z,99330.91
2022-08-28T21:31:25.211Z,99326.09
2022-08-28T21:33:27.788Z,99326.09
2022-08-28T21:35:29.897Z,99315.53
2022-08-28T21:37:32.428Z,99327.47
2022-08-28T21:39:35.251Z,99327.06
2022-08-28T21:41:37.446Z,99326.00
2022-08-28T21:43:40.856Z,99316.47
2022-08-28T21:45:43.478Z,99316.69
2022-08-28T21:47:45.506Z,99321.53
2022-08-28T21:49:55.113Z,99317.41
2022-08-28T21:51:57.096Z,99315.53
2022-08-28T21:53:59.069Z,99320.56
2022-08-28T21:56:01.099Z,99318.19
2022-08-28T21:58:03.579Z,99318.94
2022-08-28T22:00:10.389Z,99314.16
2022-08-28T22:02:12.437Z,99320.06
2022-08-28T22:04:14.511Z,99320.63
2022-08-28T22:06:19.549Z,99323.75
2022-08-28T22:08:24.966Z,99316.38
2022-08-28T22:10:29.520Z,99318.66
2022-08-28T22:12:32.881Z,99314.69
2022-08-28T22:14:35.837Z,99320.59
2022-08-28T22:16:38.080Z,99320.69
2022-08-28T22:18:40.275Z,99318.66
2022-08-28T22:21:02.867Z,99326.47
2022-08-28T22:23:11.133Z,99323.38
2022-08-28T22:25:13.546Z,99318.41
2022-08-28T22:27:15.628Z,99310.16
2022-08-28T22:29:17.947Z,99313.31
2022-08-28T22:31:20.791Z,99319.34
2022-08-28T22:33:23.028Z,99320.41
2022-08-28T22:35:25.161Z,99331.16
2022-08-28T22:37:27.306Z,99328.91
2022-08-28T22:39:29.527Z,99327.56
2022-08-28T22:41:32.597Z,99325.66
2022-08-28T22:43:35.520Z,99328.16
2022-08-28T22:45:37.845Z,99323.09
2022-08-28T22:47:39.998Z,99317.50
2022-08-28T22:49:42.780Z,99319.22
2022-08-28T22:51:44.808Z,99316.13
2022-08-28T22:53:48.368Z,99319.09
2022-08-28T22:55:50.372Z,99318.03
2022-08-28T22:57:52.485Z,99320.47
2022-08-28T22:59:54.658Z,99327.75
2022-08-28T23:01:58.943Z,99327.38
2022-08-28T23:04:02.896Z,99323.94
2022-08-28T23:06:05.395Z,99328.94
2022-08-28T23:08:07.738Z,99324.59
2022-08-28T23:10:11.859Z,99337.38
2022-08-28T23:12:14.251Z,99334.09
2022-08-28T23:14:16.465Z,99339.28
2022-08-28T23:16:24.351Z,99335.66
2022-08-28T23:18:29.366Z,99342.38
2022-08-28T23:20:31.609Z,99341.53
2022-08-28T23:22:35.910Z,99339.63
2022-08-28T23:24:38.822Z,99333.59
2022-08-28T23:26:42.003Z,99334.97
2022-08-28T23:28:44.483Z,99329.47
2022-08-28T23:30:49.738Z,99337.91
2022-08-28T23:32:52.885Z,99334.59
2022-08-28T23:34:55.097Z,99338.22
2022-08-28T23:36:57.164Z,99338.41
2022-08-28T23:39:03.053Z,99339.63
2022-08-28T23:41:05.564Z,99331.16
2022-08-28T23:43:07.980Z,99337.91
2022-08-28T23:45:12.084Z,99336.34
2022-08-28T23:47:14.647Z,99330.63
2022-08-28T23:49:18.057Z,99325.13
2022-08-28T23:51:21.901Z,99339.13
2022-08-28T23:53:24.400Z,99332.19
2022-08-28T23:55:27.012Z,99335.31
2022-08-28T23:57:33.872Z,99331.00
2022-08-28T23:59:36.048Z,99327.53
